Time;durP1;ratioP1;P1;durP2;ratioP2;P2;SDS_P1;SDS_P2;PMS_P1;PMS_P2;Temp;Humidity;BMP_temperature;BMP_pressure;BME280_temperature;BME280_humidity;BME280_pressure;Samples;Min_cycle;Max_cycle;Signal;HPM_P1;HPM_P2
2022/07/02 00:01:23;;;;;;;;;31.33;28.67;;;;;33.66;22.21;101649.22;5034388;28;45645;-79
2022/07/02 00:03:55;;;;;;;;;45.33;38.00;;;;;33.72;22.13;101657.06;5034144;28;45417;-79
2022/07/02 00:06:27;;;;;;;;;13.00;11.33;;;;;33.74;22.00;101657.88;5034281;28;45405;-79
2022/07/02 00:08:54;;;;;;;;;10.33;9.33;;;;;33.77;21.89;101673.31;5036980;28;45364;-79
2022/07/02 00:11:20;;;;;;;;;8.67;7.67;;;;;33.60;22.50;101658.78;5020498;28;45250;-79
2022/07/02 00:13:49;;;;;;;;;11.33;8.00;;;;;33.53;22.39;101651.91;5038297;28;45455;-79
2022/07/02 00:16:14;;;;;;;;;9.00;7.00;;;;;33.53;21.96;101651.00;5038123;28;46201;-79
2022/07/02 00:18:40;;;;;;;;;7.00;7.00;;;;;33.48;21.97;101656.81;5038126;28;45411;-79
2022/07/02 00:21:05;;;;;;;;;10.67;8.67;;;;;33.38;21.89;101659.25;5020266;28;45439;-79
2022/07/02 00:23:30;;;;;;;;;9.00;8.00;;;;;33.12;22.35;101655.34;5038107;28;45411;-79
2022/07/02 00:26:31;;;;;;;;;11.00;9.67;;;;;33.32;22.18;101678.91;5037941;28;46466;-79
2022/07/02 00:29:26;;;;;;;;;8.00;7.00;;;;;33.46;22.07;101680.75;5037336;28;45456;-79
2022/07/02 00:31:52;;;;;;;;;7.33;7.33;;;;;33.38;22.59;101658.38;5038183;28;45393;-78
2022/07/02 00:34:19;;;;;;;;;9.33;8.00;;;;;33.47;22.63;101669.69;5038211;28;45300;-79
2022/07/02 00:36:44;;;;;;;;;5.00;5.00;;;;;33.42;23.15;101655.31;5037567;28;46232;-79
2022/07/02 00:39:10;;;;;;;;;4.00;4.00;;;;;33.48;23.08;101663.16;5037966;28;45466;-78
2022/07/02 00:41:36;;;;;;;;;9.67;8.00;;;;;33.48;23.24;101665.91;5038105;28;45388;-79
2022/07/02 00:44:05;;;;;;;;;8.00;7.00;;;;;33.34;22.71;101627.41;5037156;28;45618;-79
2022/07/02 00:46:32;;;;;;;;;11.00;9.00;;;;;33.43;22.74;101650.69;5019940;28;48053;-79
2022/07/02 00:49:00;;;;;;;;;9.00;7.67;;;;;33.48;22.92;101660.41;5019443;28;45887;-78
2022/07/02 00:51:25;;;;;;;;;12.33;11.67;;;;;33.44;22.83;101655.22;5037704;28;45373;-79
2022/07/02 00:53:54;;;;;;;;;8.00;8.00;;;;;33.50;22.62;101658.47;5037295;28;47168;-79
2022/07/02 00:56:19;;;;;;;;;9.00;9.00;;;;;33.45;23.23;101646.88;5019613;28;48109;-79
2022/07/02 00:58:46;;;;;;;;;12.33;10.67;;;;;33.46;22.84;101650.50;5037108;28;45416;-79
2022/07/02 01:01:11;;;;;;;;;10.33;9.33;;;;;33.38;23.13;101653.75;5037382;28;45433;-79
2022/07/02 01:03:37;;;;;;;;;7.00;7.00;;;;;33.38;23.28;101664.75;5019591;28;45231;-79
2022/07/02 01:06:03;;;;;;;;;17.33;17.33;;;;;33.34;22.80;101658.53;5037115;28;45691;-79
2022/07/02 01:11:17;;;;;;;;;23.33;21.33;;;;;33.39;23.21;101655.53;5037447;28;45419;-79
2022/07/02 01:13:42;;;;;;;;;12.67;9.67;;;;;33.31;23.61;101652.38;5019009;28;45327;-79
2022/07/02 01:16:07;;;;;;;;;15.33;12.33;;;;;33.34;23.52;101664.03;5037196;28;46291;-79
2022/07/02 01:18:34;;;;;;;;;8.67;7.00;;;;;33.23;23.36;101654.72;5036617;28;45427;-79
2022/07/02 01:20:59;;;;;;;;;6.67;6.67;;;;;33.20;23.66;101663.13;5018751;28;45298;-79
2022/07/02 01:23:25;;;;;;;;;10.00;7.00;;;;;33.08;23.41;101638.16;5037190;28;45475;-79
2022/07/02 01:25:52;;;;;;;;;6.33;6.33;;;;;33.26;23.02;101669.13;5037033;28;46388;-79
2022/07/02 01:28:19;;;;;;;;;8.00;7.00;;;;;33.20;23.44;101658.50;5036705;28;45468;-79
2022/07/02 01:30:45;;;;;;;;;9.33;9.00;;;;;33.23;23.58;101665.72;5037247;28;45427;-79
2022/07/02 01:33:10;;;;;;;;;7.67;7.00;;;;;33.28;23.46;101663.56;5037171;28;45787;-79
2022/07/02 01:35:35;;;;;;;;;9.67;9.67;;;;;33.24;23.32;101662.88;5018758;28;48008;-79
2022/07/02 01:38:01;;;;;;;;;10.67;8.67;;;;;33.19;23.49;101662.22;5036854;28;45408;-79
2022/07/02 01:40:27;;;;;;;;;11.00;10.00;;;;;33.24;23.76;101670.25;5019365;28;45316;-79
2022/07/02 01:42:52;;;;;;;;;11.33;11.33;;;;;33.16;23.73;101659.66;5036790;28;45304;-79
2022/07/02 01:45:18;;;;;;;;;6.00;6.00;;;;;33.12;23.99;101652.59;5036667;28;46250;-79
2022/07/02 01:47:43;;;;;;;;;6.00;6.00;;;;;33.00;24.01;101643.25;5036727;28;45344;-79
2022/07/02 01:50:08;;;;;;;;;7.00;6.00;;;;;33.06;24.44;101673.09;5036407;28;45384;-79
2022/07/02 01:52:34;;;;;;;;;15.33;15.00;;;;;33.03;23.95;101661.44;5036855;28;45478;-79
2022/07/02 01:54:59;;;;;;;;;15.67;12.33;;;;;32.86;24.18;101643.22;5018647;28;48195;-79
2022/07/02 01:57:25;;;;;;;;;12.67;12.67;;;;;32.89;24.16;101671.41;5036270;28;45452;-79
2022/07/02 01:59:50;;;;;;;;;4.67;4.67;;;;;32.74;23.94;101653.09;5036695;28;45317;-79
2022/07/02 02:02:16;;;;;;;;;7.00;7.00;;;;;32.80;24.24;101663.72;5036360;28;45404;-78
2022/07/02 02:04:42;;;;;;;;;9.67;7.67;;;;;32.82;24.58;101662.63;5036510;28;45453;-79
2022/07/02 02:07:07;;;;;;;;;6.67;6.67;;;;;32.78;24.56;101652.78;5018339;28;45375;-79
2022/07/02 02:09:33;;;;;;;;;9.00;6.33;;;;;32.79;24.33;101646.34;5036632;28;45553;-79
2022/07/02 02:11:59;;;;;;;;;7.00;7.00;;;;;32.89;24.09;101663.16;5035589;28;45722;-79
2022/07/02 02:14:24;;;;;;;;;9.67;8.33;;;;;32.88;24.34;101660.50;5035946;28;45455;-79
2022/07/02 02:16:49;;;;;;;;;6.67;6.67;;;;;32.86;24.54;101643.22;5036011;28;45447;-79
2022/07/02 02:19:15;;;;;;;;;8.33;7.00;;;;;32.87;24.68;101658.72;5035910;28;45467;-79
2022/07/02 02:21:40;;;;;;;;;5.00;5.00;;;;;32.61;24.12;101622.69;5036322;28;45527;-79
2022/07/02 02:24:06;;;;;;;;;6.33;5.33;;;;;32.70;24.36;101641.41;5018425;28;46453;-79
2022/07/02 02:26:31;;;;;;;;;7.00;6.67;;;;;32.42;24.60;101610.06;5036009;28;45347;-79
2022/07/02 02:28:57;;;;;;;;;8.33;7.00;;;;;32.59;24.52;101642.03;5018368;28;45403;-79
2022/07/02 02:31:23;;;;;;;;;8.67;6.00;;;;;32.66;24.45;101645.28;5036020;28;45674;-79
2022/07/02 02:33:49;;;;;;;;;8.33;6.33;;;;;32.60;24.76;101641.06;5036066;28;46130;-79
2022/07/02 02:36:14;;;;;;;;;6.33;6.00;;;;;32.61;24.24;101658.41;5036026;28;45175;-79
2022/07/02 02:38:40;;;;;;;;;7.00;7.00;;;;;32.69;24.30;101658.88;5036344;28;45433;-79
2022/07/02 02:41:06;;;;;;;;;5.67;5.67;;;;;32.60;24.49;101641.06;5035575;28;45671;-79
2022/07/02 02:43:36;;;;;;;;;6.33;6.33;;;;;32.58;24.80;101655.84;5036100;28;46069;-79
2022/07/02 02:46:03;;;;;;;;;10.67;9.00;;;;;32.41;24.84;101629.41;5035788;28;45297;-79
2022/07/02 02:48:29;;;;;;;;;8.00;8.00;;;;;32.43;24.69;101639.31;5036100;28;45430;-79
2022/07/02 02:50:55;;;;;;;;;8.33;7.33;;;;;32.47;24.55;101640.88;5035946;28;45587;-79
2022/07/02 02:53:20;;;;;;;;;7.33;7.33;;;;;32.42;24.92;101609.16;5035817;28;45537;-79
2022/07/02 02:55:46;;;;;;;;;6.00;5.33;;;;;32.54;24.17;101626.78;5017591;28;45292;-79
2022/07/02 02:58:11;;;;;;;;;6.00;6.00;;;;;32.63;24.87;101639.97;5035799;28;45221;-79
2022/07/02 03:00:36;;;;;;;;;9.33;6.00;;;;;32.55;24.59;101634.06;5017885;28;45907;-79
2022/07/02 03:03:02;;;;;;;;;10.00;7.33;;;;;32.61;24.37;101647.41;5035274;28;46207;-79
2022/07/02 03:05:27;;;;;;;;;4.00;4.00;;;;;32.57;24.75;101651.31;5035947;28;45395;-79
2022/07/02 03:07:52;;;;;;;;;6.33;6.33;;;;;32.41;24.35;101627.53;5036028;28;45347;-79
2022/07/02 03:10:18;;;;;;;;;8.33;8.33;;;;;32.46;24.65;101638.22;5035557;28;45401;-79
2022/07/02 03:12:44;;;;;;;;;6.67;6.00;;;;;32.41;24.87;101630.28;5017765;28;47158;-79
2022/07/02 03:15:09;;;;;;;;;8.33;6.33;;;;;32.37;24.83;101636.91;5035317;28;45537;-79
2022/07/02 03:17:34;;;;;;;;;11.00;6.00;;;;;32.44;24.48;101642.94;5035378;28;45430;-79
2022/07/02 03:20:00;;;;;;;;;8.00;8.00;;;;;32.37;24.66;101650.66;5035695;28;45529;-79
2022/07/02 03:22:25;;;;;;;;;6.67;6.67;;;;;32.22;25.13;101654.28;5035351;28;45600;-79
2022/07/02 03:24:51;;;;;;;;;8.33;8.33;;;;;32.21;25.29;101650.69;5035438;28;45316;-79
2022/07/02 03:27:16;;;;;;;;;9.33;7.33;;;;;32.22;24.77;101643.31;5035222;28;45265;-79
2022/07/02 03:29:42;;;;;;;;;8.33;8.33;;;;;32.31;24.65;101645.53;5017498;28;45404;-79
2022/07/02 03:32:07;;;;;;;;;7.00;6.00;;;;;32.19;25.03;101627.91;5035103;28;46061;-79
2022/07/02 03:34:32;;;;;;;;;7.67;7.33;;;;;32.13;24.89;101631.88;5017535;28;45428;-79
2022/07/02 03:36:58;;;;;;;;;6.00;6.00;;;;;32.22;25.13;101626.84;5035102;28;45334;-79
2022/07/02 03:39:23;;;;;;;;;6.00;6.00;;;;;32.37;24.43;101661.63;5035491;28;45542;-79
2022/07/02 03:41:49;;;;;;;;;11.67;7.33;;;;;32.30;24.73;101662.97;5017384;28;47014;-79
2022/07/02 03:44:14;;;;;;;;;7.00;7.00;;;;;32.09;24.98;101621.16;5038568;28;45257;-79
2022/07/02 03:46:39;;;;;;;;;6.33;6.33;;;;;32.17;25.12;101645.44;5038922;28;45281;-79
2022/07/02 03:49:05;;;;;;;;;8.33;7.00;;;;;32.26;25.08;101661.38;5038666;28;45618;-80
2022/07/02 03:51:30;;;;;;;;;4.33;3.00;;;;;32.26;25.23;101659.50;5038354;28;45400;-80
2022/07/02 03:53:55;;;;;;;;;6.00;5.67;;;;;32.10;24.80;101634.78;5038791;28;45397;-80
2022/07/02 03:56:20;;;;;;;;;5.00;4.00;;;;;32.23;25.20;101658.81;5038497;28;45372;-79
2022/07/02 03:58:46;;;;;;;;;9.33;6.67;;;;;32.19;25.26;101641.63;5038728;28;45309;-79
2022/07/02 04:01:11;;;;;;;;;5.00;5.00;;;;;32.24;25.25;101652.34;5020319;28;48047;-79
2022/07/02 04:03:37;;;;;;;;;6.33;6.00;;;;;32.23;25.52;101651.44;5038618;28;45198;-80
2022/07/02 04:06:03;;;;;;;;;8.00;8.00;;;;;32.21;25.42;101639.69;5038425;28;45491;-79
2022/07/02 04:08:28;;;;;;;;;7.33;7.33;;;;;32.20;24.64;101628.81;5038514;28;45485;-79
2022/07/02 04:10:54;;;;;;;;;8.00;7.00;;;;;32.23;24.99;101643.22;5038421;28;46456;-79
2022/07/02 04:13:19;;;;;;;;;8.00;6.67;;;;;32.31;25.52;101653.78;5038159;28;45766;-80
2022/07/02 04:15:45;;;;;;;;;6.00;6.00;;;;;32.23;25.57;101634.97;5038348;28;45744;-79
2022/07/02 04:18:10;;;;;;;;;5.67;5.67;;;;;32.39;24.81;101645.06;5038373;28;45737;-80
2022/07/02 04:20:36;;;;;;;;;5.67;5.67;;;;;32.47;24.91;101656.47;5038032;28;45644;-80
2022/07/02 04:23:01;;;;;;;;;5.00;5.00;;;;;32.52;25.13;101668.09;5037984;28;45480;-80
2022/07/02 04:25:26;;;;;;;;;8.00;7.00;;;;;32.57;24.96;101662.31;5038335;28;45483;-80
2022/07/02 04:27:52;;;;;;;;;9.33;7.33;;;;;32.48;24.95;101642.66;5038050;28;45973;-79
2022/07/02 04:30:17;;;;;;;;;9.33;8.00;;;;;32.61;24.71;101670.28;5037831;28;45564;-80
2022/07/02 04:32:42;;;;;;;;;7.33;7.33;;;;;32.67;24.53;101669.03;5038294;28;45332;-80
2022/07/02 04:35:08;;;;;;;;;8.67;7.00;;;;;32.67;24.71;101663.53;5037811;28;45327;-79
2022/07/02 04:37:34;;;;;;;;;6.00;5.00;;;;;32.63;24.64;101643.59;5020301;28;45405;-79
2022/07/02 04:39:59;;;;;;;;;6.00;6.00;;;;;32.57;24.89;101637.59;5020040;28;47069;-79
2022/07/02 04:42:24;;;;;;;;;6.33;6.33;;;;;32.59;24.44;101653.00;5020062;28;45441;-79
2022/07/02 04:44:50;;;;;;;;;6.67;6.00;;;;;32.55;24.57;101648.69;5038000;28;45337;-79
2022/07/02 04:47:15;;;;;;;;;7.00;7.00;;;;;32.76;24.76;101671.25;5019771;28;45647;-80
2022/07/02 04:49:40;;;;;;;;;7.67;7.67;;;;;32.81;24.67;101658.13;5037317;28;46273;-80
2022/07/02 04:52:06;;;;;;;;;7.33;7.33;;;;;32.81;24.78;101644.41;5037461;28;45482;-79
2022/07/02 04:54:31;;;;;;;;;7.33;7.33;;;;;32.92;24.79;101662.94;5037808;28;45487;-79
2022/07/02 04:56:57;;;;;;;;;10.33;8.00;;;;;32.99;24.20;101668.97;5037769;28;45335;-80
2022/07/02 04:59:22;;;;;;;;;6.00;5.33;;;;;32.97;24.08;101659.94;5037177;28;45391;-80
2022/07/02 05:01:48;;;;;;;;;7.67;6.67;;;;;32.92;24.08;101651.97;5045249;28;45476;-77
2022/07/02 05:04:13;;;;;;;;;7.67;7.67;;;;;32.95;24.24;101664.63;5057413;28;45762;-77
2022/07/02 05:06:38;;;;;;;;;7.00;4.67;;;;;32.96;24.37;101649.91;5035898;28;45481;-80
2022/07/02 05:09:04;;;;;;;;;7.33;6.67;;;;;33.02;24.18;101656.91;5036789;28;51048;-78
2022/07/02 05:11:30;;;;;;;;;6.67;6.67;;;;;32.91;23.90;101643.81;5019428;28;45507;-76
2022/07/02 05:13:55;;;;;;;;;8.00;6.00;;;;;32.96;23.96;101661.78;5037657;28;45506;-76
2022/07/02 05:16:21;;;;;;;;;8.00;7.33;;;;;32.87;23.31;101648.63;5037342;28;45563;-76
2022/07/02 05:18:47;;;;;;;;;5.33;5.00;;;;;32.91;22.96;101655.72;5037348;28;45371;-78
2022/07/02 05:21:12;;;;;;;;;5.00;5.00;;;;;32.85;22.66;101645.06;5037294;28;45408;-77
2022/07/02 05:23:38;;;;;;;;;7.33;5.00;;;;;32.88;22.71;101661.38;5036957;28;45296;-77
2022/07/02 05:26:03;;;;;;;;;4.00;4.00;;;;;32.55;23.33;101606.59;5036966;28;45246;-77
2022/07/02 05:28:29;;;;;;;;;4.00;4.00;;;;;32.76;22.86;101660.25;5036770;28;46301;-77
2022/07/02 05:30:54;;;;;;;;;8.33;5.33;;;;;32.83;22.99;101669.03;5037171;28;45336;-78
2022/07/02 05:33:20;;;;;;;;;7.00;5.67;;;;;32.89;23.07;101659.53;5036901;28;45356;-77
2022/07/02 05:35:46;;;;;;;;;6.00;4.33;;;;;32.76;23.00;101641.03;5036811;28;46484;-77
2022/07/02 05:38:11;;;;;;;;;6.33;6.33;;;;;32.82;23.12;101654.38;5036750;28;45353;-76
2022/07/02 05:40:37;;;;;;;;;5.33;5.33;;;;;32.86;23.01;101671.59;5037017;28;45336;-76
2022/07/02 05:43:02;;;;;;;;;8.00;6.33;;;;;32.89;22.68;101674.13;5037078;28;45310;-75
2022/07/02 05:45:28;;;;;;;;;5.00;5.00;;;;;32.69;22.97;101650.63;5036876;28;45491;-75
2022/07/02 05:47:53;;;;;;;;;4.33;4.33;;;;;32.64;23.01;101647.22;5036403;28;45834;-74
2022/07/02 05:50:19;;;;;;;;;4.00;4.00;;;;;32.70;23.20;101652.41;5036493;28;45297;-76
2022/07/02 05:52:45;;;;;;;;;6.00;4.00;;;;;32.76;23.13;101654.78;5019119;28;45380;-77
2022/07/02 05:55:11;;;;;;;;;3.00;3.00;;;;;32.67;22.79;101649.78;5036770;28;45443;-77
2022/07/02 05:57:37;;;;;;;;;6.00;4.00;;;;;32.75;22.99;101666.72;5018433;28;46887;-77
2022/07/02 06:00:04;;;;;;;;;2.33;2.33;;;;;32.66;22.57;101640.66;5036960;28;45529;-77
2022/07/02 06:02:29;;;;;;;;;3.00;3.00;;;;;32.74;22.86;101662.25;5048178;28;45454;-77
2022/07/02 06:04:54;;;;;;;;;3.00;3.00;;;;;32.70;23.00;101657.91;5044082;28;45501;-78
2022/07/02 06:10:04;;;;;;;;;2.67;2.67;;;;;32.88;22.96;101655.88;5036688;28;45535;-81
2022/07/02 06:12:30;;;;;;;;;3.33;3.33;;;;;32.99;22.61;101664.34;5036728;28;45478;-80
2022/07/02 06:14:55;;;;;;;;;3.67;3.67;;;;;33.01;22.30;101658.78;5036749;28;45438;-78
2022/07/02 06:17:20;;;;;;;;;4.67;3.00;;;;;33.01;22.50;101658.78;5035635;28;46566;-80
2022/07/02 06:19:48;;;;;;;;;3.67;3.67;;;;;33.04;22.44;101655.84;5036590;28;45499;-79
2022/07/02 06:22:13;;;;;;;;;2.33;2.33;;;;;33.08;22.48;101660.16;5036509;28;45368;-80
2022/07/02 06:24:39;;;;;;;;;3.33;3.33;;;;;33.07;23.08;101657.50;5053692;28;45545;-77
2022/07/02 06:27:05;;;;;;;;;4.67;3.00;;;;;33.17;22.28;101656.81;5039157;28;46200;-76
2022/07/02 06:29:30;;;;;;;;;3.00;3.00;;;;;33.29;22.67;101654.31;5036061;28;45421;-75
2022/07/02 06:31:56;;;;;;;;;2.33;2.33;;;;;33.35;22.54;101667.69;5035588;28;45818;-76
2022/07/02 06:34:21;;;;;;;;;3.67;3.33;;;;;33.32;22.38;101659.66;5035691;28;45499;-77
2022/07/02 06:36:46;;;;;;;;;5.67;4.67;;;;;33.39;22.63;101671.13;5035704;28;46133;-76
2022/07/02 06:39:12;;;;;;;;;3.67;3.67;;;;;33.32;22.46;101633.03;5017935;28;46097;-77
2022/07/02 06:44:21;;;;;;;;;2.00;2.00;;;;;33.31;22.38;101645.00;5035798;28;45563;-77
2022/07/02 06:46:46;;;;;;;;;4.00;3.00;;;;;33.36;22.55;101644.69;5035252;28;46153;-78
2022/07/02 06:49:12;;;;;;;;;2.00;2.00;;;;;33.53;22.87;101662.00;5035624;28;45516;-79
2022/07/02 06:51:37;;;;;;;;;4.00;4.00;;;;;33.45;22.51;101619.34;5035949;28;45429;-78
2022/07/02 06:54:02;;;;;;;;;3.00;3.00;;;;;33.52;22.05;101633.63;5036074;28;45509;-79
2022/07/02 06:56:29;;;;;;;;;3.00;3.00;;;;;33.65;22.25;101663.97;5035632;28;46401;-80
2022/07/02 06:58:56;;;;;;;;;3.00;3.00;;;;;33.65;22.52;101650.22;5035563;28;45441;-80
2022/07/02 07:01:22;;;;;;;;;2.67;2.67;;;;;33.56;22.13;101645.28;5035348;28;45218;-81
